Time;durP1;ratioP1;P1;durP2;ratioP2;P2;SDS_P1;SDS_P2;PMS_P1;PMS_P2;Temp;Humidity;BMP_temperature;BMP_pressure;BME280_temperature;BME280_humidity;BME280_pressure;Samples;Min_cycle;Max_cycle;Signal;HPM_P1;HPM_P2
2021/04/06 00:01:05;;;;;;;;;;;;;;;;;;;;;
2021/04/06 00:03:32;;;;;;;1999.90;999.90;;;2.20;99.90;;;;;;4824721;29;20163;-89
2021/04/06 00:06:03;;;;;;;1999.90;999.90;;;2.20;99.90;;;;;;4808839;29;20748;-88
2021/04/06 00:08:31;;;;;;;1999.90;999.90;;;2.20;99.90;;;;;;4824890;29;20233;-88
2021/04/06 00:11:03;;;;;;;1999.90;999.90;;;2.20;99.90;;;;;;4824927;29;20251;-88
2021/04/06 00:13:32;;;;;;;1999.90;999.90;;;2.30;99.90;;;;;;4825092;29;20171;-88
2021/04/06 00:16:00;;;;;;;1999.90;999.90;;;2.40;99.90;;;;;;4825909;29;20695;-88
2021/04/06 00:18:27;;;;;;;1999.90;999.90;;;2.30;99.90;;;;;;4808548;29;20183;-88
2021/04/06 00:20:57;;;;;;;1999.90;999.90;;;2.40;99.90;;;;;;4809506;29;20260;-88
2021/04/06 00:23:26;;;;;;;1999.90;999.90;;;2.40;99.90;;;;;;4809891;29;20161;-88
2021/04/06 00:25:53;;;;;;;1999.90;999.90;;;2.40;99.90;;;;;;4811904;29;20184;-88
2021/04/06 00:28:24;;;;;;;1999.90;999.90;;;2.40;99.90;;;;;;4828710;29;20164;-88
2021/04/06 00:30:52;;;;;;;1999.90;999.90;;;2.40;99.90;;;;;;4828504;29;20169;-88
2021/04/06 00:33:25;;;;;;;1999.90;999.90;;;2.50;99.90;;;;;;4828645;29;20184;-87
2021/04/06 00:35:57;;;;;;;1999.90;999.90;;;2.50;99.90;;;;;;4813020;29;20157;-88
2021/04/06 00:38:26;;;;;;;1999.90;999.90;;;2.50;99.90;;;;;;4829160;29;20200;-87
2021/04/06 00:40:58;;;;;;;1999.90;999.90;;;2.50;99.90;;;;;;4829501;29;20544;-87
2021/04/06 00:43:33;;;;;;;1999.90;999.90;;;2.50;99.90;;;;;;4812001;29;20165;-87
2021/04/06 00:46:03;;;;;;;1999.90;999.90;;;2.60;99.90;;;;;;4812244;29;20192;-87
2021/04/06 00:48:31;;;;;;;1999.90;999.90;;;2.60;99.90;;;;;;4827366;29;20176;-87
2021/04/06 00:51:21;;;;;;;1999.90;999.90;;;2.60;99.90;;;;;;4827727;29;20194;-87
2021/04/06 00:54:01;;;;;;;1999.90;999.90;;;2.60;99.90;;;;;;4827919;29;20209;-87
2021/04/06 00:56:29;;;;;;;1999.90;999.90;;;2.60;99.90;;;;;;4811880;29;20192;-88
2021/04/06 00:58:58;;;;;;;1999.90;999.90;;;2.60;99.90;;;;;;4812600;29;20184;-86
2021/04/06 01:01:32;;;;;;;1999.90;999.90;;;2.60;99.90;;;;;;4830264;29;20184;-87
2021/04/06 01:03:58;;;;;;;1999.90;999.90;;;2.70;99.90;;;;;;4831966;29;20161;-87
2021/04/06 01:06:27;;;;;;;1999.90;999.90;;;2.70;99.90;;;;;;4831467;29;20259;-86
2021/04/06 01:08:53;;;;;;;1999.90;999.90;;;2.70;99.90;;;;;;4831780;29;20180;-87
2021/04/06 01:11:22;;;;;;;1999.90;999.90;;;2.70;99.90;;;;;;4832512;29;20192;-87
2021/04/06 01:13:48;;;;;;;1999.90;999.90;;;2.70;99.90;;;;;;4830796;29;20672;-87
2021/04/06 01:16:14;;;;;;;1999.90;999.90;;;2.80;99.90;;;;;;4829309;29;20590;-87
2021/04/06 01:18:40;;;;;;;1999.90;999.90;;;2.80;99.90;;;;;;4812107;29;20169;-87
2021/04/06 01:21:12;;;;;;;1999.90;999.90;;;2.80;99.90;;;;;;4828047;29;20422;-88
2021/04/06 01:23:42;;;;;;;1999.90;999.90;;;2.80;99.90;;;;;;4827214;29;20165;-87
2021/04/06 01:26:12;;;;;;;1999.90;999.90;;;2.80;99.90;;;;;;4826466;29;20206;-87
2021/04/06 01:28:38;;;;;;;1999.90;999.90;;;2.80;99.90;;;;;;4826795;29;20684;-87
2021/04/06 01:31:06;;;;;;;1999.90;999.90;;;2.80;99.90;;;;;;4827309;29;20629;-87
2021/04/06 01:33:44;;;;;;;1999.90;999.90;;;2.80;99.90;;;;;;4809871;29;20183;-87
2021/04/06 01:36:23;;;;;;;;;;;;;;;;;;;;;
2021/04/06 01:38:51;;;;;;;1999.90;999.90;;;2.90;99.90;;;;;;4827624;29;20168;-87
2021/04/06 01:41:18;;;;;;;1999.90;999.90;;;2.90;99.90;;;;;;4811496;29;20176;-87
2021/04/06 01:43:47;;;;;;;1999.90;999.90;;;2.90;99.90;;;;;;4811513;29;20202;-88
2021/04/06 01:46:40;;;;;;;1999.90;999.90;;;2.90;99.90;;;;;;4809992;29;20200;-88
2021/04/06 01:49:18;;;;;;;1999.90;999.90;;;2.90;99.90;;;;;;4811284;29;20237;-87
2021/04/06 01:52:03;;;;;;;1999.90;999.90;;;2.90;99.90;;;;;;4826999;29;20196;-88
2021/04/06 01:54:37;;;;;;;1999.90;999.90;;;2.90;99.90;;;;;;4826562;29;20529;-88
2021/04/06 01:57:16;;;;;;;1999.90;999.90;;;2.90;99.90;;;;;;4810631;29;20196;-88
2021/04/06 02:00:01;;;;;;;1999.90;999.90;;;2.90;99.90;;;;;;4810702;29;20185;-88
2021/04/06 02:02:46;;;;;;;1999.90;999.90;;;2.90;99.90;;;;;;4825911;29;20154;-88
2021/04/06 02:05:41;;;;;;;1999.90;999.90;;;2.80;99.90;;;;;;4826349;29;20236;-88
2021/04/06 02:08:17;;;;;;;1999.90;999.90;;;2.80;99.90;;;;;;4819656;29;20238;-88
2021/04/06 02:10:46;;;;;;;1999.90;999.90;;;2.80;99.90;;;;;;4809965;29;20255;-89
2021/04/06 02:13:14;;;;;;;1999.90;999.90;;;2.70;99.90;;;;;;4825598;29;20703;-88
2021/04/06 02:16:01;;;;;;;1999.90;999.90;;;2.80;99.90;;;;;;4825516;29;20169;-88
2021/04/06 02:18:40;;;;;;;1999.90;999.90;;;2.80;99.90;;;;;;4809043;29;20547;-88
2021/04/06 02:21:07;;;;;;;1999.90;999.90;;;2.80;99.90;;;;;;4826492;29;20161;-88
2021/04/06 02:23:43;;;;;;;1999.90;999.90;;;2.80;99.90;;;;;;4826189;29;20173;-87
2021/04/06 02:26:12;;;;;;;1999.90;999.90;;;2.80;99.90;;;;;;4825958;29;20184;-88
2021/04/06 02:28:38;;;;;;;1999.90;999.90;;;2.80;99.90;;;;;;4826228;29;20649;-88
2021/04/06 02:31:05;;;;;;;1999.90;999.90;;;2.80;99.90;;;;;;4826469;29;20215;-88
2021/04/06 02:33:36;;;;;;;1999.90;999.90;;;2.80;99.90;;;;;;4809845;29;20437;-88
2021/04/06 02:36:08;;;;;;;1999.90;999.90;;;2.80;99.90;;;;;;4826063;29;20729;-88
2021/04/06 02:38:42;;;;;;;1999.90;999.90;;;2.80;99.90;;;;;;4826153;29;20529;-89
2021/04/06 02:41:10;;;;;;;1999.90;999.90;;;2.80;99.90;;;;;;4825975;29;20198;-88
2021/04/06 02:43:56;;;;;;;1999.90;999.90;;;2.70;99.90;;;;;;4809301;29;20177;-89
2021/04/06 02:46:26;;;;;;;1999.90;999.90;;;2.70;99.90;;;;;;4825664;29;20200;-89
2021/04/06 02:48:58;;;;;;;1999.90;999.90;;;2.80;99.90;;;;;;4825574;29;20161;-89
2021/04/06 02:51:24;;;;;;;1999.90;999.90;;;2.80;99.90;;;;;;4825739;29;20181;-89
2021/04/06 02:53:52;;;;;;;1999.90;999.90;;;2.60;99.90;;;;;;4825298;29;20251;-90
2021/04/06 02:56:34;;;;;;;1999.90;999.90;;;2.60;99.90;;;;;;4809450;29;20707;-90
2021/04/06 02:59:19;;;;;;;1999.90;999.90;;;2.70;99.90;;;;;;4825220;29;20652;-89
2021/04/06 03:01:47;;;;;;;1999.90;999.90;;;2.60;99.90;;;;;;4809138;29;20207;-90
2021/04/06 03:04:31;;;;;;;1999.90;999.90;;;2.60;99.90;;;;;;4825127;29;20180;-90
2021/04/06 03:06:57;;;;;;;1999.90;999.90;;;2.60;99.90;;;;;;4825024;29;20192;-90
2021/04/06 03:09:33;;;;;;;1999.90;999.90;;;2.60;99.90;;;;;;4824837;29;20184;-90
2021/04/06 03:12:00;;;;;;;1999.90;999.90;;;2.60;99.90;;;;;;4808360;29;20195;-91
2021/04/06 03:14:26;;;;;;;1999.90;999.90;;;2.60;99.90;;;;;;4824844;29;20164;-90
2021/04/06 03:16:57;;;;;;;1999.90;999.90;;;2.60;99.90;;;;;;4808296;29;20195;-91
2021/04/06 03:19:32;;;;;;;1999.90;999.90;;;2.60;99.90;;;;;;4808707;29;20949;-91
2021/04/06 03:22:08;;;;;;;1999.90;999.90;;;2.50;99.90;;;;;;4808813;29;20277;-91
2021/04/06 03:24:37;;;;;;;1999.90;999.90;;;2.50;99.90;;;;;;4825371;29;20537;-90
2021/04/06 03:27:09;;;;;;;1999.90;999.90;;;2.50;99.90;;;;;;4809647;29;20243;-90
2021/04/06 03:29:35;;;;;;;1999.90;999.90;;;2.50;99.90;;;;;;4825197;29;20259;-90
2021/04/06 03:32:05;;;;;;;1999.90;999.90;;;2.50;99.90;;;;;;4808754;29;20283;-88
2021/04/06 03:34:39;;;;;;;1999.90;999.90;;;2.50;99.90;;;;;;4808850;29;20893;-90
2021/04/06 03:37:13;;;;;;;1999.90;999.90;;;2.50;99.90;;;;;;4808412;29;20244;-90
2021/04/06 03:39:42;;;;;;;1999.90;999.90;;;2.50;99.90;;;;;;4825065;29;20209;-89
2021/04/06 03:42:52;;;;;;;1999.90;999.90;;;2.50;99.90;;;;;;4824852;29;20172;-89
2021/04/06 03:45:20;;;;;;;1999.90;999.90;;;2.50;99.90;;;;;;4787689;29;20283;-89
2021/04/06 03:48:07;;;;;;;1999.90;999.90;;;2.50;99.90;;;;;;4808101;29;20235;-89
2021/04/06 03:50:44;;;;;;;1999.90;999.90;;;2.50;99.90;;;;;;4809151;29;20608;-89
2021/04/06 03:53:11;;;;;;;1999.90;999.90;;;2.50;99.90;;;;;;4825057;29;20228;-89
2021/04/06 03:55:45;;;;;;;1999.90;999.90;;;2.50;99.90;;;;;;4809071;29;20176;-89
2021/04/06 03:58:16;;;;;;;1999.90;999.90;;;2.50;99.90;;;;;;4810939;29;20574;-89
2021/04/06 04:00:47;;;;;;;1999.90;999.90;;;2.50;99.90;;;;;;4811544;29;20217;-89
2021/04/06 04:03:18;;;;;;;1999.90;999.90;;;2.50;99.90;;;;;;4828150;29;20164;-89
2021/04/06 04:05:49;;;;;;;1999.90;999.90;;;2.50;99.90;;;;;;4828299;29;20164;-89
2021/04/06 04:08:20;;;;;;;1999.90;999.90;;;2.50;99.90;;;;;;4812304;29;20667;-89
2021/04/06 04:10:49;;;;;;;1999.90;999.90;;;2.40;99.90;;;;;;4812019;29;20180;-89
2021/04/06 04:13:15;;;;;;;1999.90;999.90;;;2.50;99.90;;;;;;4828543;29;20525;-89
2021/04/06 04:15:40;;;;;;;1999.90;999.90;;;2.40;99.90;;;;;;4811591;29;20187;-89
2021/04/06 04:18:06;;;;;;;1999.90;999.90;;;2.40;99.90;;;;;;4812256;29;20232;-89
2021/04/06 04:20:35;;;;;;;1999.90;999.90;;;2.40;99.90;;;;;;4828293;29;20169;-89
2021/04/06 04:23:00;;;;;;;1999.90;999.90;;;2.40;99.90;;;;;;4828197;29;20949;-89
2021/04/06 04:25:26;;;;;;;1999.90;999.90;;;2.30;99.90;;;;;;4811800;29;20188;-89
2021/04/06 04:27:52;;;;;;;1999.90;999.90;;;2.30;99.90;;;;;;4827906;29;20512;-89
2021/04/06 04:33:04;;;;;;;1999.90;999.90;;;2.40;99.90;;;;;;4828137;29;20231;-89
2021/04/06 04:35:48;;;;;;;1999.90;999.90;;;2.40;99.90;;;;;;4811994;29;20177;-88
2021/04/06 04:38:22;;;;;;;1999.90;999.90;;;2.40;99.90;;;;;;4829049;29;20203;-88
2021/04/06 04:40:50;;;;;;;1999.90;999.90;;;2.40;99.90;;;;;;4812187;29;20232;-88
2021/04/06 04:43:19;;;;;;;1999.90;999.90;;;2.40;99.90;;;;;;4812017;29;20185;-88
2021/04/06 04:45:50;;;;;;;1999.90;999.90;;;2.40;99.90;;;;;;4829290;29;20256;-88
2021/04/06 04:48:22;;;;;;;1999.90;999.90;;;2.30;99.90;;;;;;4830637;29;20153;-88
2021/04/06 04:50:50;;;;;;;1999.90;999.90;;;2.30;99.90;;;;;;4814184;29;20173;-87
2021/04/06 04:53:27;;;;;;;1999.90;999.90;;;2.30;99.90;;;;;;4815561;29;20228;-88
2021/04/06 04:55:53;;;;;;;1999.90;999.90;;;2.30;99.90;;;;;;4833012;29;20199;-88
2021/04/06 04:58:40;;;;;;;1999.90;999.90;;;2.20;99.90;;;;;;4815810;29;20177;-88
2021/04/06 05:01:12;;;;;;;1999.90;999.90;;;2.20;99.90;;;;;;4825420;29;20188;-88
2021/04/06 05:03:40;;;;;;;1999.90;999.90;;;2.20;99.90;;;;;;4816827;29;20164;-88
2021/04/06 05:06:09;;;;;;;1999.90;999.90;;;2.20;99.90;;;;;;4832105;29;20283;-88
2021/04/06 05:08:35;;;;;;;1999.90;999.90;;;2.10;99.90;;;;;;4830858;29;20169;-88
2021/04/06 05:11:01;;;;;;;1999.90;999.90;;;2.10;99.90;;;;;;4830986;29;20172;-88
2021/04/06 05:13:29;;;;;;;1999.90;999.90;;;2.10;99.90;;;;;;4814678;29;20425;-87
2021/04/06 05:15:55;;;;;;;1999.90;999.90;;;2.20;99.90;;;;;;4831951;29;20657;-87
2021/04/06 05:18:23;;;;;;;1999.90;999.90;;;2.10;99.90;;;;;;4830121;29;20172;-88
2021/04/06 05:30:54;;;;;;;1999.90;999.90;;;2.30;99.90;;;;;;4828020;29;20196;-85
2021/04/06 05:38:13;;;;;;;;;;;;;;;;;;;;;
2021/04/06 05:41:26;;;;;;;1999.90;999.90;;;2.30;99.90;;;;;;4735535;30;20204;-87
2021/04/06 05:48:00;;;;;;;1999.90;999.90;;;2.40;99.90;;;;;;4754284;30;20194;-86
2021/04/06 06:01:43;;;;;;;1999.90;999.90;;;2.60;99.90;;;;;;4791182;24;20284;-77
2021/04/06 06:04:15;;;;;;;1999.90;999.90;;;2.70;99.90;;;;;;4826094;29;20168;-77
2021/04/06 06:06:41;;;;;;;1999.90;999.90;;;2.80;99.90;;;;;;4809324;29;20569;-77
2021/04/06 06:09:09;;;;;;;1999.90;999.90;;;2.90;99.90;;;;;;4825886;29;20204;-77
2021/04/06 06:11:56;;;;;;;1999.90;999.90;;;3.00;99.90;;;;;;4825843;29;20211;-77
2021/04/06 06:14:34;;;;;;;1999.90;999.90;;;2.90;99.90;;;;;;4825865;29;20263;-77
2021/04/06 06:17:22;;;;;;;1999.90;999.90;;;2.80;99.90;;;;;;4825557;29;20192;-77
2021/04/06 06:19:51;;;;;;;1999.90;999.90;;;2.80;99.90;;;;;;4825355;29;20165;-76
2021/04/06 06:22:17;;;;;;;1999.90;999.90;;;2.80;99.90;;;;;;4809557;29;20172;-76
2021/04/06 06:24:48;;;;;;;1999.90;999.90;;;2.80;99.90;;;;;;4825500;29;20249;-77
2021/04/06 06:27:38;;;;;;;1999.90;999.90;;;2.80;99.90;;;;;;4825445;29;20180;-76
2021/04/06 06:30:27;;;;;;;1999.90;999.90;;;2.80;99.90;;;;;;4809023;29;20222;-77
2021/04/06 06:33:17;;;;;;;1999.90;999.90;;;2.80;99.90;;;;;;4825317;29;20199;-76
2021/04/06 06:35:49;;;;;;;1999.90;999.90;;;2.90;99.90;;;;;;4825561;29;20580;-77
2021/04/06 06:38:30;;;;;;;1999.90;999.90;;;2.90;99.90;;;;;;4825573;29;20161;-77
2021/04/06 06:41:09;;;;;;;1999.90;999.90;;;2.90;99.90;;;;;;4808924;29;20172;-77
2021/04/06 06:43:36;;;;;;;1999.90;999.90;;;2.90;99.90;;;;;;4825474;29;20156;-77
2021/04/06 06:46:02;;;;;;;1999.90;999.90;;;2.90;99.90;;;;;;4825081;29;20193;-77
2021/04/06 06:48:33;;;;;;;1999.90;999.90;;;3.00;99.90;;;;;;4825169;29;20169;-77
2021/04/06 06:51:01;;;;;;;1999.90;999.90;;;3.10;99.90;;;;;;4808742;29;20173;-77
2021/04/06 06:53:36;;;;;;;1999.90;999.90;;;3.10;99.90;;;;;;4825257;29;20176;-77
2021/04/06 06:56:03;;;;;;;1999.90;999.90;;;3.30;99.90;;;;;;4825200;29;20194;-77
2021/04/06 06:58:35;;;;;;;1999.90;999.90;;;3.30;99.90;;;;;;4824986;29;20172;-78
2021/04/06 07:01:02;;;;;;;1999.90;999.90;;;3.30;99.90;;;;;;4808407;29;20215;-78
2021/04/06 07:03:28;;;;;;;1999.90;999.90;;;3.40;99.90;;;;;;4825218;29;20626;-76
2021/04/06 07:05:55;;;;;;;1999.90;999.90;;;3.40;99.90;;;;;;4824865;29;20204;-77
2021/04/06 07:08:34;;;;;;;1999.90;999.90;;;3.50;99.90;;;;;;4824923;29;20704;-77
2021/04/06 07:11:01;;;;;;;1999.90;999.90;;;3.50;99.90;;;;;;4808402;29;20195;-77
2021/04/06 07:13:31;;;;;;;1999.90;999.90;;;3.40;99.90;;;;;;4825366;29;20160;-77
2021/04/06 07:15:58;;;;;;;1999.90;999.90;;;3.50;99.90;;;;;;4824725;29;20295;-77
2021/04/06 07:18:26;;;;;;;1999.90;999.90;;;3.50;99.90;;;;;;4825009;29;20176;-77
2021/04/06 07:20:54;;;;;;;1999.90;999.90;;;3.60;99.90;;;;;;4824975;29;20541;-77
2021/04/06 07:23:52;;;;;;;1999.90;999.90;;;3.60;99.90;;;;;;4824878;29;20263;-77
2021/04/06 07:26:20;;;;;;;1999.90;999.90;;;3.60;99.90;;;;;;4824972;29;20275;-77
2021/04/06 07:28:46;;;;;;;1999.90;999.90;;;3.70;99.90;;;;;;4824693;29;20247;-77
2021/04/06 07:31:15;;;;;;;1999.90;999.90;;;3.70;99.90;;;;;;4824923;29;20324;-77
2021/04/06 07:33:42;;;;;;;1999.90;999.90;;;3.70;99.90;;;;;;4807888;29;20512;-77
2021/04/06 07:36:12;;;;;;;1999.90;999.90;;;3.70;99.90;;;;;;4824708;29;20560;-77
2021/04/06 07:38:42;;;;;;;1999.90;999.90;;;3.80;99.90;;;;;;4825093;29;20181;-77
2021/04/06 07:41:08;;;;;;;1999.90;999.90;;;3.80;99.90;;;;;;4824519;29;20165;-77
2021/04/06 07:43:34;;;;;;;1999.90;999.90;;;3.80;99.90;;;;;;4824468;29;20255;-77
2021/04/06 07:46:00;;;;;;;1999.90;999.90;;;3.80;99.90;;;;;;4807874;29;20226;-77
2021/04/06 07:48:55;;;;;;;1999.90;999.90;;;3.90;99.90;;;;;;4824972;29;20196;-77
2021/04/06 07:51:31;;;;;;;1999.90;999.90;;;3.90;99.90;;;;;;4816085;29;20216;-77
2021/04/06 07:54:03;;;;;;;1999.90;999.90;;;4.00;99.90;;;;;;4824301;29;20191;-77
2021/04/06 07:56:48;;;;;;;1999.90;999.90;;;4.00;99.90;;;;;;4824700;29;20193;-77
2021/04/06 07:59:20;;;;;;;1999.90;999.90;;;4.20;99.90;;;;;;4808322;29;20550;-77
2021/04/06 08:01:55;;;;;;;1999.90;999.90;;;4.30;99.90;;;;;;4824113;29;20188;-77
2021/04/06 08:04:51;;;;;;;1999.90;999.90;;;4.30;99.90;;;;;;4824525;29;20239;-77
2021/04/06 08:07:20;;;;;;;1999.90;999.90;;;4.40;99.90;;;;;;4807754;29;20200;-77
2021/04/06 08:09:47;;;;;;;1999.90;999.90;;;4.50;99.90;;;;;;4824297;29;20176;-77
2021/04/06 08:12:17;;;;;;;1999.90;999.90;;;4.60;99.90;;;;;;4824941;29;20231;-78
2021/04/06 08:14:55;;;;;;;1999.90;999.90;;;4.70;99.90;;;;;;4807842;29;20718;-78
2021/04/06 08:17:26;;;;;;;1999.90;999.90;;;4.70;99.90;;;;;;4823993;29;20200;-77
2021/04/06 08:19:56;;;;;;;1999.90;999.90;;;4.80;99.90;;;;;;4824142;29;20169;-77
2021/04/06 08:22:28;;;;;;;1999.90;999.90;;;4.80;99.90;;;;;;4824689;29;20172;-78
2021/04/06 08:25:19;;;;;;;1999.90;999.90;;;4.60;99.90;;;;;;4807729;29;20184;-77
2021/04/06 08:27:46;;;;;;;1999.90;999.90;;;4.70;99.90;;;;;;4807853;29;20244;-78
2021/04/06 08:30:31;;;;;;;1999.90;999.90;;;4.70;99.90;;;;;;4824225;29;20183;-78
2021/04/06 08:32:58;;;;;;;1999.90;999.90;;;4.70;99.90;;;;;;4824185;29;20284;-77
2021/04/06 08:35:43;;;;;;;1999.90;999.90;;;4.70;99.90;;;;;;4824007;29;20656;-78
2021/04/06 08:38:26;;;;;;;1999.90;999.90;;;4.80;99.90;;;;;;4823987;29;20256;-77
2021/04/06 08:41:01;;;;;;;1999.90;999.90;;;4.90;99.90;;;;;;4824505;29;20503;-77
2021/04/06 08:43:33;;;;;;;1999.90;999.90;;;4.90;99.90;;;;;;4824302;29;20160;-77
2021/04/06 08:46:05;;;;;;;1999.90;999.90;;;4.90;99.90;;;;;;4827267;29;20188;-77
2021/04/06 08:49:01;;;;;;;1999.90;999.90;;;5.10;99.90;;;;;;4827134;29;20280;-77
2021/04/06 08:51:41;;;;;;;1999.90;999.90;;;5.10;99.90;;;;;;4819822;29;20692;-77
2021/04/06 08:54:08;;;;;;;1999.90;999.90;;;5.10;99.90;;;;;;4827147;29;20241;-77
2021/04/06 08:56:44;;;;;;;1999.90;999.90;;;5.20;99.90;;;;;;4827183;29;20185;-77
2021/04/06 08:59:14;;;;;;;1999.90;999.90;;;5.30;99.90;;;;;;4827645;29;20157;-77
2021/04/06 09:01:55;;;;;;;1999.90;999.90;;;5.40;99.90;;;;;;4827208;29;20197;-77
2021/04/06 09:04:27;;;;;;;1999.90;999.90;;;5.40;99.90;;;;;;4810968;29;20192;-77
2021/04/06 09:06:52;;;;;;;1999.90;999.90;;;5.50;99.90;;;;;;4827062;29;20192;-77
2021/04/06 09:09:21;;;;;;;1999.90;999.90;;;5.60;99.90;;;;;;4826946;29;20177;-77
2021/04/06 09:11:48;;;;;;;1999.90;999.90;;;5.60;99.90;;;;;;4826953;29;20577;-77
2021/04/06 09:14:14;;;;;;;1999.90;999.90;;;5.50;99.90;;;;;;4827400;29;20161;-77
2021/04/06 09:16:40;;;;;;;1999.90;999.90;;;5.40;99.90;;;;;;4826975;29;20188;-77
2021/04/06 09:19:08;;;;;;;1999.90;999.90;;;5.50;99.90;;;;;;4826976;29;20251;-77
2021/04/06 09:21:34;;;;;;;1999.90;999.90;;;5.80;99.90;;;;;;4826518;29;20231;-77
2021/04/06 09:24:03;;;;;;;1999.90;999.90;;;5.80;99.90;;;;;;4827227;29;20176;-77
2021/04/06 09:26:30;;;;;;;1999.90;999.90;;;5.80;99.90;;;;;;4827513;29;20192;-77
2021/04/06 09:29:08;;;;;;;1999.90;999.90;;;5.80;99.90;;;;;;4826798;29;20208;-77
2021/04/06 09:31:37;;;;;;;1999.90;999.90;;;5.70;99.90;;;;;;4826631;29;20267;-77
2021/04/06 09:34:04;;;;;;;1999.90;999.90;;;5.60;99.90;;;;;;4826597;29;20164;-77
2021/04/06 09:36:30;;;;;;;1999.90;999.90;;;5.50;99.90;;;;;;4810452;29;20665;-77
2021/04/06 09:38:56;;;;;;;1999.90;999.90;;;5.60;99.90;;;;;;4826663;29;20173;-77
2021/04/06 09:41:35;;;;;;;1999.90;999.90;;;5.60;99.90;;;;;;4827110;29;20191;-77
2021/04/06 09:44:02;;;;;;;1999.90;999.90;;;5.50;99.90;;;;;;4826761;29;20517;-77
2021/04/06 09:46:37;;;;;;;1999.90;999.90;;;5.40;99.90;;;;;;4826364;29;20180;-77
2021/04/06 09:49:03;;;;;;;1999.90;999.90;;;5.30;99.90;;;;;;4826592;29;20168;-77
2021/04/06 09:51:29;;;;;;;1999.90;999.90;;;5.30;99.90;;;;;;4827100;29;20676;-78
2021/04/06 09:53:55;;;;;;;1999.90;999.90;;;5.40;99.90;;;;;;4826521;29;20173;-78
2021/04/06 09:56:21;;;;;;;1999.90;999.90;;;5.70;99.90;;;;;;4826337;29;20891;-78
2021/04/06 09:58:47;;;;;;;1999.90;999.90;;;5.90;99.90;;;;;;4827326;29;20937;-78
2021/04/06 10:01:26;;;;;;;1999.90;999.90;;;6.00;99.90;;;;;;4826160;29;20211;-77
2021/04/06 10:04:02;;;;;;;1999.90;999.90;;;6.00;99.90;;;;;;4826564;29;20157;-78
2021/04/06 10:06:36;;;;;;;1999.90;999.90;;;6.10;99.80;;;;;;4826574;29;20199;-77
2021/04/06 10:09:26;;;;;;;1999.90;999.90;;;6.30;98.10;;;;;;4826206;29;20181;-77
2021/04/06 10:11:53;;;;;;;1999.90;999.90;;;6.40;95.60;;;;;;4825943;29;20281;-78
2021/04/06 10:14:20;;;;;;;1999.90;999.90;;;6.40;96.70;;;;;;4809462;29;20196;-77
2021/04/06 10:17:03;;;;;;;1999.90;999.90;;;6.30;97.30;;;;;;4825567;29;20196;-77
2021/04/06 10:19:31;;;;;;;1999.90;999.90;;;6.40;99.90;;;;;;4826311;29;20157;-78
2021/04/06 10:22:11;;;;;;;1999.90;999.90;;;6.50;99.30;;;;;;4809241;29;20184;-77
2021/04/06 10:24:41;;;;;;;1999.90;999.90;;;6.40;95.10;;;;;;4825951;29;20533;-77
2021/04/06 10:27:15;;;;;;;1999.90;999.90;;;6.60;97.50;;;;;;4825755;29;20227;-77
2021/04/06 10:29:41;;;;;;;1999.90;999.90;;;6.90;94.60;;;;;;4825853;29;20699;-77
2021/04/06 10:32:20;;;;;;;1999.90;999.90;;;7.00;95.00;;;;;;4825313;29;20200;-77
2021/04/06 10:34:58;;;;;;;1999.90;999.90;;;7.10;95.50;;;;;;4825802;29;20224;-77
2021/04/06 10:37:24;;;;;;;1999.90;999.90;;;7.20;93.40;;;;;;4825314;29;20185;-77
2021/04/06 10:39:50;;;;;;;1999.90;999.90;;;7.00;90.00;;;;;;4825304;29;20183;-77
2021/04/06 10:42:17;;;;;;;1999.90;999.90;;;6.80;92.20;;;;;;4808855;29;20181;-77
2021/04/06 10:44:45;;;;;;;1999.90;999.90;;;6.40;96.00;;;;;;4825559;29;20181;-77
2021/04/06 10:47:29;;;;;;;1999.90;999.90;;;6.00;99.20;;;;;;4825225;29;20216;-77
2021/04/06 10:49:59;;;;;;;1999.90;999.90;;;5.50;99.90;;;;;;4825307;29;20163;-77
2021/04/06 10:52:33;;;;;;;1999.90;999.90;;;5.20;99.90;;;;;;4825909;29;20208;-77
2021/04/06 10:55:01;;;;;;;1999.90;999.90;;;4.90;99.90;;;;;;4826589;29;20628;-77
2021/04/06 10:57:34;;;;;;;1999.90;999.90;;;4.60;99.90;;;;;;4826091;29;20301;-77
2021/04/06 11:00:20;;;;;;;1999.90;999.90;;;4.30;99.90;;;;;;4809026;29;20632;-77
2021/04/06 11:02:46;;;;;;;1999.90;999.90;;;4.20;99.90;;;;;;4824944;29;20207;-77
2021/04/06 11:05:26;;;;;;;1999.90;999.90;;;4.30;99.90;;;;;;4824953;29;20645;-77
2021/04/06 11:07:52;;;;;;;1999.90;999.90;;;4.50;99.90;;;;;;4824252;29;20192;-77
2021/04/06 11:10:23;;;;;;;1999.90;999.90;;;4.90;99.90;;;;;;4824905;29;20541;-77
2021/04/06 11:12:49;;;;;;;1999.90;999.90;;;5.20;99.90;;;;;;4824743;29;20185;-77
2021/04/06 11:15:15;;;;;;;1999.90;999.90;;;5.40;99.90;;;;;;4824771;29;20179;-77
2021/04/06 11:17:43;;;;;;;1999.90;999.90;;;5.40;99.90;;;;;;4824734;29;20235;-77
2021/04/06 11:20:09;;;;;;;1999.90;999.90;;;5.50;99.90;;;;;;4825076;29;20411;-76
2021/04/06 11:22:40;;;;;;;1999.90;999.90;;;5.50;99.90;;;;;;4891473;24;20298;-82
2021/04/06 11:25:06;;;;;;;1999.90;999.90;;;5.70;99.90;;;;;;4811795;29;20165;-83
2021/04/06 11:27:35;;;;;;;1999.90;999.90;;;5.90;99.90;;;;;;4811312;29;20192;-84
2021/04/06 11:30:03;;;;;;;1999.90;999.90;;;6.00;99.90;;;;;;4827998;29;20218;-84
2021/04/06 11:32:29;;;;;;;1999.90;999.90;;;5.90;99.90;;;;;;4828858;29;20279;-84
2021/04/06 11:34:55;;;;;;;1999.90;999.90;;;5.80;99.90;;;;;;4827806;29;20173;-84
2021/04/06 11:37:24;;;;;;;1999.90;999.90;;;5.80;99.90;;;;;;4826881;29;20199;-85
2021/04/06 11:39:50;;;;;;;1999.90;999.90;;;5.80;99.90;;;;;;4813436;29;20425;-85
2021/04/06 11:42:17;;;;;;;1999.90;999.90;;;5.80;99.90;;;;;;4830144;29;20197;-85
2021/04/06 11:44:45;;;;;;;1999.90;999.90;;;5.90;99.90;;;;;;4830275;29;20182;-85
2021/04/06 11:47:14;;;;;;;1999.90;999.90;;;5.90;99.90;;;;;;4830175;29;20598;-85
2021/04/06 11:49:42;;;;;;;1999.90;999.90;;;5.80;99.90;;;;;;4831253;29;20180;-85
2021/04/06 11:52:11;;;;;;;1999.90;999.90;;;5.80;99.90;;;;;;4813481;29;20625;-85
2021/04/06 11:54:43;;;;;;;1999.90;999.90;;;5.70;99.90;;;;;;4830172;29;20188;-84
2021/04/06 11:57:11;;;;;;;1999.90;999.90;;;5.50;99.90;;;;;;4830130;29;20249;-84
2021/04/06 11:59:44;;;;;;;1999.90;999.90;;;5.40;99.90;;;;;;4812897;29;20601;-85
2021/04/06 12:02:12;;;;;;;1999.90;999.90;;;5.20;99.90;;;;;;4812700;29;20185;-85
2021/04/06 12:04:41;;;;;;;1999.90;999.90;;;4.40;99.90;;;;;;4813246;29;20210;-84
2021/04/06 12:07:07;;;;;;;1999.90;999.90;;;4.10;99.90;;;;;;4828153;29;20669;-85
2021/04/06 12:09:32;;;;;;;1999.90;999.90;;;3.90;99.90;;;;;;4827352;29;20192;-85
2021/04/06 12:12:34;;;;;;;1999.90;999.90;;;3.80;99.90;;;;;;4810715;29;20291;-85
2021/04/06 12:15:32;;;;;;;1999.90;999.90;;;4.00;99.90;;;;;;4774794;30;20654;-85
2021/04/06 12:17:57;;;;;;;1999.90;999.90;;;4.20;99.90;;;;;;4775604;30;20648;-85
2021/04/06 12:20:26;;;;;;;1999.90;999.90;;;4.30;99.90;;;;;;4794754;30;20181;-85
2021/04/06 12:23:24;;;;;;;1999.90;999.90;;;4.40;99.90;;;;;;4806495;29;20664;-85
2021/04/06 12:25:50;;;;;;;1999.90;999.90;;;4.30;99.90;;;;;;4796695;29;20188;-85
2021/04/06 12:28:18;;;;;;;1999.90;999.90;;;4.50;99.90;;;;;;4832318;29;20216;-85
2021/04/06 12:30:44;;;;;;;1999.90;999.90;;;4.90;99.90;;;;;;4830583;29;20962;-85
2021/04/06 12:33:19;;;;;;;1999.90;999.90;;;5.30;99.90;;;;;;4812732;29;20295;-88
2021/04/06 12:35:45;;;;;;;1999.90;999.90;;;5.70;99.90;;;;;;4829536;29;20157;-85
2021/04/06 12:38:22;;;;;;;1999.90;999.90;;;6.10;99.90;;;;;;4832335;29;20181;-85
2021/04/06 12:40:59;;;;;;;1999.90;999.90;;;6.40;99.90;;;;;;4831599;29;20160;-85
2021/04/06 12:43:28;;;;;;;1999.90;999.90;;;6.80;99.90;;;;;;4832337;29;20233;-85
2021/04/06 12:46:24;;;;;;;1999.90;999.90;;;7.00;99.90;;;;;;4832617;29;20204;-85
2021/04/06 12:49:08;;;;;;;1999.90;999.90;;;7.20;99.90;;;;;;4815798;29;20212;-86
2021/04/06 12:51:40;;;;;;;1999.90;999.90;;;7.20;99.90;;;;;;4816123;29;20223;-85
2021/04/06 12:54:26;;;;;;;1999.90;999.90;;;7.00;99.90;;;;;;4816164;29;20173;-85
2021/04/06 12:57:11;;;;;;;1999.90;999.90;;;6.60;99.90;;;;;;4832840;29;20188;-85
2021/04/06 12:59:54;;;;;;;1999.90;999.90;;;6.30;99.90;;;;;;4833699;29;20179;-85
2021/04/06 13:02:23;;;;;;;1999.90;999.90;;;6.00;99.90;;;;;;4816792;29;20594;-85
2021/04/06 13:05:39;;;;;;;;;;;;;;;;;;;;;
2021/04/06 13:08:19;;;;;;;1999.90;999.90;;;5.90;99.90;;;;;;4832880;29;20259;-85
2021/04/06 13:10:45;;;;;;;1999.90;999.90;;;5.80;99.90;;;;;;4832866;29;20161;-85
2021/04/06 13:13:19;;;;;;;1999.90;999.90;;;5.60;99.90;;;;;;4833832;29;20193;-85